sensor_id;sensor_type;location;lat;lon;timestamp;pressure;altitude;pressure_sealevel;temperature;humidity
64844;BME280;51310;52.198;5.422;2023-01-28T00:00:34;102771.31;;;1.40;100.00
64844;BME280;51310;52.198;5.422;2023-01-28T00:03:00;102766.03;;;1.44;100.00
64844;BME280;51310;52.198;5.422;2023-01-28T00:05:26;102768.56;;;1.44;100.00
64844;BME280;51310;52.198;5.422;2023-01-28T00:07:54;102769.31;;;1.28;100.00
64844;BME280;51310;52.198;5.422;2023-01-28T00:10:21;102778.00;;;1.25;100.00
64844;BME280;51310;52.198;5.422;2023-01-28T00:12:47;102784.78;;;1.30;100.00
64844;BME280;51310;52.198;5.422;2023-01-28T00:15:13;102781.94;;;1.43;100.00
64844;BME280;51310;52.198;5.422;2023-01-28T00:17:38;102780.94;;;1.37;100.00
64844;BME280;51310;52.198;5.422;2023-01-28T00:20:05;102774.44;;;1.49;100.00
64844;BME280;51310;52.198;5.422;2023-01-28T00:22:31;102775.56;;;1.30;100.00
64844;BME280;51310;52.198;5.422;2023-01-28T00:24:57;102785.34;;;1.38;100.00
64844;BME280;51310;52.198;5.422;2023-01-28T00:27:24;102780.53;;;1.25;100.00
64844;BME280;51310;52.198;5.422;2023-01-28T00:29:49;102776.47;;;1.31;100.00
64844;BME280;51310;52.198;5.422;2023-01-28T00:32:15;102784.94;;;1.26;100.00
64844;BME280;51310;52.198;5.422;2023-01-28T00:34:41;102781.97;;;1.28;100.00
64844;BME280;51310;52.198;5.422;2023-01-28T00:37:07;102781.56;;;1.15;100.00
64844;BME280;51310;52.198;5.422;2023-01-28T00:39:33;102784.97;;;1.10;100.00
64844;BME280;51310;52.198;5.422;2023-01-28T00:41:58;102771.44;;;1.15;100.00
64844;BME280;51310;52.198;5.422;2023-01-28T00:44:24;102773.53;;;1.18;100.00
64844;BME280;51310;52.198;5.422;2023-01-28T00:46:50;102774.41;;;1.13;100.00
64844;BME280;51310;52.198;5.422;2023-01-28T00:49:15;102776.50;;;1.15;100.00
64844;BME280;51310;52.198;5.422;2023-01-28T00:51:41;102777.25;;;1.20;100.00
64844;BME280;51310;52.198;5.422;2023-01-28T00:54:08;102779.78;;;1.20;100.00
64844;BME280;51310;52.198;5.422;2023-01-28T00:56:35;102777.00;;;1.18;100.00
64844;BME280;51310;52.198;5.422;2023-01-28T00:59:01;102780.97;;;1.22;100.00
64844;BME280;51310;52.198;5.422;2023-01-28T01:01:27;102767.53;;;1.17;100.00
64844;BME280;51310;52.198;5.422;2023-01-28T01:03:54;102764.47;;;1.14;100.00
64844;BME280;51310;52.198;5.422;2023-01-28T01:06:33;102766.09;;;1.14;100.00
64844;BME280;51310;52.198;5.422;2023-01-28T01:09:02;102766.44;;;1.21;100.00
64844;BME280;51310;52.198;5.422;2023-01-28T01:11:28;102762.34;;;1.27;100.00
64844;BME280;51310;52.198;5.422;2023-01-28T01:13:57;102763.38;;;1.18;100.00
64844;BME280;51310;52.198;5.422;2023-01-28T01:16:27;102766.09;;;1.14;100.00
64844;BME280;51310;52.198;5.422;2023-01-28T01:18:54;102763.56;;;1.14;100.00
64844;BME280;51310;52.198;5.422;2023-01-28T01:21:25;102770.91;;;1.12;100.00
64844;BME280;51310;52.198;5.422;2023-01-28T01:23:52;102762.09;;;1.41;100.00
64844;BME280;51310;52.198;5.422;2023-01-28T01:26:18;102764.94;;;1.48;100.00
64844;BME280;51310;52.198;5.422;2023-01-28T01:28:44;102762.72;;;1.55;100.00
64844;BME280;51310;52.198;5.422;2023-01-28T01:31:14;102772.16;;;1.35;100.00
64844;BME280;51310;52.198;5.422;2023-01-28T01:33:47;102771.53;;;1.21;100.00
64844;BME280;51310;52.198;5.422;2023-01-28T01:36:15;102768.34;;;1.43;100.00
64844;BME280;51310;52.198;5.422;2023-01-28T01:38:42;102774.00;;;1.52;100.00
64844;BME280;51310;52.198;5.422;2023-01-28T01:41:20;102768.56;;;1.60;100.00
64844;BME280;51310;52.198;5.422;2023-01-28T01:46:44;102782.78;;;1.54;100.00
64844;BME280;51310;52.198;5.422;2023-01-28T01:49:21;102790.22;;;1.42;100.00
64844;BME280;51310;52.198;5.422;2023-01-28T01:51:55;102792.50;;;1.56;100.00
64844;BME280;51310;52.198;5.422;2023-01-28T01:54:25;102794.97;;;1.35;100.00
64844;BME280;51310;52.198;5.422;2023-01-28T01:56:54;102788.28;;;1.36;100.00
64844;BME280;51310;52.198;5.422;2023-01-28T01:59:28;102783.78;;;1.23;100.00
64844;BME280;51310;52.198;5.422;2023-01-28T02:01:58;102779.34;;;1.22;100.00
64844;BME280;51310;52.198;5.422;2023-01-28T02:04:30;102784.19;;;1.21;100.00
64844;BME280;51310;52.198;5.422;2023-01-28T02:06:59;102793.56;;;1.16;100.00
64844;BME280;51310;52.198;5.422;2023-01-28T02:09:32;102796.88;;;1.21;100.00
64844;BME280;51310;52.198;5.422;2023-01-28T02:12:23;102796.31;;;1.49;100.00
64844;BME280;51310;52.198;5.422;2023-01-28T02:15:22;102795.13;;;1.47;100.00
64844;BME280;51310;52.198;5.422;2023-01-28T02:17:49;102786.28;;;1.39;100.00
64844;BME280;51310;52.198;5.422;2023-01-28T02:23:37;102789.31;;;1.27;100.00
64844;BME280;51310;52.198;5.422;2023-01-28T02:29:24;102807.50;;;1.24;100.00
64844;BME280;51310;52.198;5.422;2023-01-28T02:32:03;102794.50;;;1.17;100.00
64844;BME280;51310;52.198;5.422;2023-01-28T02:35:04;102794.25;;;1.15;100.00
64844;BME280;51310;52.198;5.422;2023-01-28T02:37:37;102799.66;;;1.07;100.00
64844;BME280;51310;52.198;5.422;2023-01-28T02:40:29;102801.41;;;1.33;100.00
64844;BME280;51310;52.198;5.422;2023-01-28T02:42:56;102805.91;;;1.25;100.00
64844;BME280;51310;52.198;5.422;2023-01-28T02:45:30;102802.78;;;1.00;100.00
64844;BME280;51310;52.198;5.422;2023-01-28T02:48:16;102807.59;;;0.99;100.00
64844;BME280;51310;52.198;5.422;2023-01-28T02:51:30;102814.69;;;0.96;100.00
64844;BME280;51310;52.198;5.422;2023-01-28T03:00:32;102795.44;;;1.02;100.00
64844;BME280;51310;52.198;5.422;2023-01-28T03:03:23;102794.31;;;0.90;100.00
64844;BME280;51310;52.198;5.422;2023-01-28T03:05:59;102791.13;;;0.91;100.00
64844;BME280;51310;52.198;5.422;2023-01-28T03:09:01;102795.00;;;0.89;100.00
64844;BME280;51310;52.198;5.422;2023-01-28T03:12:02;102786.66;;;1.00;100.00
64844;BME280;51310;52.198;5.422;2023-01-28T03:15:30;102788.16;;;0.78;100.00
64844;BME280;51310;52.198;5.422;2023-01-28T03:18:24;102786.81;;;0.80;100.00
64844;BME280;51310;52.198;5.422;2023-01-28T03:21:19;102793.06;;;0.82;100.00
64844;BME280;51310;52.198;5.422;2023-01-28T03:24:13;102801.91;;;0.75;100.00
64844;BME280;51310;52.198;5.422;2023-01-28T03:27:06;102806.16;;;0.80;100.00
64844;BME280;51310;52.198;5.422;2023-01-28T03:29:58;102800.72;;;0.73;100.00
64844;BME280;51310;52.198;5.422;2023-01-28T03:32:44;102800.56;;;0.77;100.00
64844;BME280;51310;52.198;5.422;2023-01-28T03:35:34;102796.41;;;0.77;100.00
64844;BME280;51310;52.198;5.422;2023-01-28T03:38:20;102797.63;;;0.95;100.00
64844;BME280;51310;52.198;5.422;2023-01-28T03:41:01;102795.88;;;0.99;100.00
64844;BME280;51310;52.198;5.422;2023-01-28T03:43:29;102797.72;;;0.85;100.00
64844;BME280;51310;52.198;5.422;2023-01-28T03:45:55;102802.53;;;0.99;100.00
64844;BME280;51310;52.198;5.422;2023-01-28T03:48:25;102798.81;;;0.97;100.00
64844;BME280;51310;52.198;5.422;2023-01-28T03:50:56;102799.81;;;1.03;100.00
64844;BME280;51310;52.198;5.422;2023-01-28T03:53:22;102803.66;;;0.95;100.00
64844;BME280;51310;52.198;5.422;2023-01-28T03:55:50;102806.22;;;0.86;100.00
64844;BME280;51310;52.198;5.422;2023-01-28T03:58:18;102803.25;;;0.73;100.00
64844;BME280;51310;52.198;5.422;2023-01-28T04:00:45;102804.28;;;0.79;100.00
64844;BME280;51310;52.198;5.422;2023-01-28T04:03:17;102810.28;;;0.79;100.00
64844;BME280;51310;52.198;5.422;2023-01-28T04:05:57;102807.69;;;0.74;100.00
64844;BME280;51310;52.198;5.422;2023-01-28T04:08:23;102805.81;;;0.88;100.00
64844;BME280;51310;52.198;5.422;2023-01-28T04:10:50;102807.44;;;1.03;100.00
64844;BME280;51310;52.198;5.422;2023-01-28T04:13:15;102815.03;;;1.03;100.00
64844;BME280;51310;52.198;5.422;2023-01-28T04:15:43;102816.22;;;0.90;100.00
64844;BME280;51310;52.198;5.422;2023-01-28T04:18:10;102822.31;;;0.96;100.00
64844;BME280;51310;52.198;5.422;2023-01-28T04:20:36;102814.53;;;1.00;100.00
64844;BME280;51310;52.198;5.422;2023-01-28T04:23:03;102813.03;;;1.06;100.00
64844;BME280;51310;52.198;5.422;2023-01-28T04:25:30;102828.56;;;0.98;100.00
64844;BME280;51310;52.198;5.422;2023-01-28T04:27:56;102835.69;;;1.10;100.00
64844;BME280;51310;52.198;5.422;2023-01-28T04:30:22;102835.91;;;1.27;100.00
64844;BME280;51310;52.198;5.422;2023-01-28T04:32:48;102833.91;;;0.99;100.00
64844;BME280;51310;52.198;5.422;2023-01-28T04:35:16;102837.78;;;0.97;100.00
64844;BME280;51310;52.198;5.422;2023-01-28T04:37:42;102837.53;;;1.11;100.00
64844;BME280;51310;52.198;5.422;2023-01-28T04:40:10;102840.63;;;0.89;100.00
64844;BME280;51310;52.198;5.422;2023-01-28T04:42:36;102832.63;;;1.07;100.00
64844;BME280;51310;52.198;5.422;2023-01-28T04:45:03;102836.94;;;1.18;100.00
64844;BME280;51310;52.198;5.422;2023-01-28T04:47:29;102824.34;;;1.23;100.00
64844;BME280;51310;52.198;5.422;2023-01-28T04:49:55;102833.25;;;0.75;100.00
64844;BME280;51310;52.198;5.422;2023-01-28T04:52:21;102833.78;;;0.78;100.00
64844;BME280;51310;52.198;5.422;2023-01-28T04:54:46;102833.34;;;0.81;100.00
64844;BME280;51310;52.198;5.422;2023-01-28T04:57:12;102816.25;;;0.65;100.00
64844;BME280;51310;52.198;5.422;2023-01-28T04:59:38;102814.56;;;0.59;100.00
64844;BME280;51310;52.198;5.422;2023-01-28T05:02:03;102817.78;;;0.58;100.00
64844;BME280;51310;52.198;5.422;2023-01-28T05:04:29;102814.84;;;0.61;100.00
64844;BME280;51310;52.198;5.422;2023-01-28T05:06:55;102823.34;;;0.61;100.00
64844;BME280;51310;52.198;5.422;2023-01-28T05:09:20;102823.09;;;0.60;100.00
64844;BME280;51310;52.198;5.422;2023-01-28T05:11:46;102822.75;;;0.53;100.00
64844;BME280;51310;52.198;5.422;2023-01-28T05:14:11;102818.91;;;0.45;100.00
64844;BME280;51310;52.198;5.422;2023-01-28T05:16:37;102819.44;;;0.48;100.00
64844;BME280;51310;52.198;5.422;2023-01-28T05:19:03;102810.72;;;0.52;100.00
64844;BME280;51310;52.198;5.422;2023-01-28T05:21:29;102812.00;;;0.44;100.00
64844;BME280;51310;52.198;5.422;2023-01-28T05:23:54;102815.72;;;0.46;100.00
64844;BME280;51310;52.198;5.422;2023-01-28T05:26:20;102809.69;;;0.71;100.00
64844;BME280;51310;52.198;5.422;2023-01-28T05:28:46;102820.09;;;0.72;100.00
64844;BME280;51310;52.198;5.422;2023-01-28T05:31:11;102822.13;;;0.69;100.00
64844;BME280;51310;52.198;5.422;2023-01-28T05:33:37;102825.25;;;0.78;100.00
64844;BME280;51310;52.198;5.422;2023-01-28T05:36:03;102828.78;;;0.84;100.00
64844;BME280;51310;52.198;5.422;2023-01-28T05:38:29;102829.00;;;1.11;100.00
64844;BME280;51310;52.198;5.422;2023-01-28T05:40:55;102825.34;;;0.99;100.00
64844;BME280;51310;52.198;5.422;2023-01-28T05:43:21;102825.41;;;0.74;100.00
64844;BME280;51310;52.198;5.422;2023-01-28T05:45:47;102825.59;;;0.85;100.00
64844;BME280;51310;52.198;5.422;2023-01-28T05:48:13;102816.97;;;0.79;100.00
64844;BME280;51310;52.198;5.422;2023-01-28T05:50:39;102820.69;;;0.81;100.00
64844;BME280;51310;52.198;5.422;2023-01-28T05:53:08;102813.94;;;0.76;100.00
64844;BME280;51310;52.198;5.422;2023-01-28T05:55:34;102826.34;;;0.90;100.00
64844;BME280;51310;52.198;5.422;2023-01-28T05:58:00;102822.03;;;0.79;100.00
64844;BME280;51310;52.198;5.422;2023-01-28T06:00:26;102823.22;;;0.81;100.00
64844;BME280;51310;52.198;5.422;2023-01-28T06:02:52;102814.28;;;0.58;100.00
64844;BME280;51310;52.198;5.422;2023-01-28T06:05:19;102817.53;;;0.57;100.00
64844;BME280;51310;52.198;5.422;2023-01-28T06:07:48;102818.25;;;0.87;100.00
64844;BME280;51310;52.198;5.422;2023-01-28T06:10:14;102827.13;;;0.94;100.00
64844;BME280;51310;52.198;5.422;2023-01-28T06:12:42;102827.56;;;0.67;100.00
64844;BME280;51310;52.198;5.422;2023-01-28T06:15:09;102830.13;;;0.82;100.00
64844;BME280;51310;52.198;5.422;2023-01-28T06:17:35;102822.94;;;0.64;100.00
64844;BME280;51310;52.198;5.422;2023-01-28T06:20:01;102822.94;;;0.64;100.00
64844;BME280;51310;52.198;5.422;2023-01-28T06:22:26;102827.22;;;0.85;100.00
64844;BME280;51310;52.198;5.422;2023-01-28T06:24:52;102815.19;;;0.84;100.00
64844;BME280;51310;52.198;5.422;2023-01-28T06:27:17;102818.16;;;0.81;100.00
64844;BME280;51310;52.198;5.422;2023-01-28T06:29:43;102817.13;;;0.75;100.00
64844;BME280;51310;52.198;5.422;2023-01-28T06:32:09;102826.03;;;0.57;100.00
64844;BME280;51310;52.198;5.422;2023-01-28T06:34:34;102828.19;;;0.75;100.00
64844;BME280;51310;52.198;5.422;2023-01-28T06:37:00;102840.22;;;0.51;100.00
64844;BME280;51310;52.198;5.422;2023-01-28T06:39:29;102846.94;;;0.66;100.00
64844;BME280;51310;52.198;5.422;2023-01-28T06:41:57;102836.38;;;0.69;100.00
64844;BME280;51310;52.198;5.422;2023-01-28T06:44:23;102845.03;;;0.50;100.00
64844;BME280;51310;52.198;5.422;2023-01-28T06:46:49;102842.03;;;0.37;100.00
64844;BME280;51310;52.198;5.422;2023-01-28T06:49:15;102848.38;;;0.45;100.00
64844;BME280;51310;52.198;5.422;2023-01-28T06:51:40;102840.50;;;0.43;100.00
64844;BME280;51310;52.198;5.422;2023-01-28T06:54:06;102848.84;;;0.32;100.00
64844;BME280;51310;52.198;5.422;2023-01-28T06:56:32;102849.94;;;0.29;100.00
64844;BME280;51310;52.198;5.422;2023-01-28T06:58:58;102851.78;;;0.30;100.00
64844;BME280;51310;52.198;5.422;2023-01-28T07:01:24;102863.09;;;0.32;100.00
64844;BME280;51310;52.198;5.422;2023-01-28T07:03:49;102855.19;;;0.50;100.00
64844;BME280;51310;52.198;5.422;2023-01-28T07:06:15;102856.41;;;0.42;100.00
64844;BME280;51310;52.198;5.422;2023-01-28T07:08:41;102856.06;;;0.35;100.00
64844;BME280;51310;52.198;5.422;2023-01-28T07:11:07;102844.50;;;0.47;100.00
64844;BME280;51310;52.198;5.422;2023-01-28T07:13:33;102853.03;;;0.47;100.00
64844;BME280;51310;52.198;5.422;2023-01-28T07:16:00;102853.81;;;0.27;100.00
64844;BME280;51310;52.198;5.422;2023-01-28T07:18:25;102855.66;;;0.28;100.00
64844;BME280;51310;52.198;5.422;2023-01-28T07:20:51;102861.41;;;0.27;100.00
64844;BME280;51310;52.198;5.422;2023-01-28T07:23:17;102856.75;;;0.24;100.00
64844;BME280;51310;52.198;5.422;2023-01-28T07:25:42;102857.06;;;0.16;100.00
64844;BME280;51310;52.198;5.422;2023-01-28T07:28:09;102851.56;;;0.28;100.00
64844;BME280;51310;52.198;5.422;2023-01-28T07:30:35;102855.38;;;0.36;100.00
64844;BME280;51310;52.198;5.422;2023-01-28T07:33:01;102864.75;;;0.22;100.00
64844;BME280;51310;52.198;5.422;2023-01-28T07:35:27;102871.34;;;0.15;100.00
64844;BME280;51310;52.198;5.422;2023-01-28T07:37:56;102870.34;;;0.25;100.00
64844;BME280;51310;52.198;5.422;2023-01-28T07:40:23;102876.59;;;0.27;100.00
64844;BME280;51310;52.198;5.422;2023-01-28T07:42:50;102873.09;;;0.36;100.00
64844;BME280;51310;52.198;5.422;2023-01-28T07:45:17;102870.00;;;0.43;100.00
64844;BME280;51310;52.198;5.422;2023-01-28T07:47:42;102882.06;;;0.59;100.00
64844;BME280;51310;52.198;5.422;2023-01-28T07:50:10;102880.13;;;0.68;100.00
64844;BME280;51310;52.198;5.422;2023-01-28T07:52:37;102878.63;;;0.74;100.00
64844;BME280;51310;52.198;5.422;2023-01-28T07:55:12;102877.38;;;0.81;100.00
64844;BME280;51310;52.198;5.422;2023-01-28T07:58:07;102883.47;;;0.63;100.00
64844;BME280;51310;52.198;5.422;2023-01-28T08:00:35;102881.13;;;0.58;100.00
64844;BME280;51310;52.198;5.422;2023-01-28T08:03:06;102879.94;;;0.56;100.00
64844;BME280;51310;52.198;5.422;2023-01-28T08:05:47;102883.66;;;0.58;100.00
64844;BME280;51310;52.198;5.422;2023-01-28T08:08:13;102878.69;;;0.64;100.00
64844;BME280;51310;52.198;5.422;2023-01-28T08:10:40;102882.63;;;0.52;100.00
64844;BME280;51310;52.198;5.422;2023-01-28T08:13:06;102889.69;;;0.74;100.00
64844;BME280;51310;52.198;5.422;2023-01-28T08:15:33;102889.97;;;0.76;100.00
64844;BME280;51310;52.198;5.422;2023-01-28T08:17:59;102895.22;;;0.87;100.00
64844;BME280;51310;52.198;5.422;2023-01-28T08:20:27;102899.81;;;0.99;100.00
64844;BME280;51310;52.198;5.422;2023-01-28T08:23:24;102898.66;;;1.13;100.00
64844;BME280;51310;52.198;5.422;2023-01-28T08:25:52;102897.41;;;0.80;100.00
64844;BME280;51310;52.198;5.422;2023-01-28T08:28:20;102894.19;;;0.81;100.00
64844;BME280;51310;52.198;5.422;2023-01-28T08:30:46;102904.50;;;0.92;100.00
64844;BME280;51310;52.198;5.422;2023-01-28T08:33:15;102892.38;;;1.11;100.00
64844;BME280;51310;52.198;5.422;2023-01-28T08:35:41;102894.00;;;1.10;100.00
64844;BME280;51310;52.198;5.422;2023-01-28T08:38:10;102909.38;;;1.06;100.00
64844;BME280;51310;52.198;5.422;2023-01-28T08:40:36;102900.22;;;1.12;100.00
64844;BME280;51310;52.198;5.422;2023-01-28T08:43:03;102896.19;;;1.18;100.00
64844;BME280;51310;52.198;5.422;2023-01-28T08:45:29;102910.59;;;1.39;100.00
64844;BME280;51310;52.198;5.422;2023-01-28T08:48:00;102920.25;;;1.51;100.00
64844;BME280;51310;52.198;5.422;2023-01-28T08:50:30;102915.06;;;1.61;100.00
64844;BME280;51310;52.198;5.422;2023-01-28T08:53:03;102927.41;;;1.69;100.00
64844;BME280;51310;52.198;5.422;2023-01-28T08:55:29;102925.91;;;1.75;100.00
64844;BME280;51310;52.198;5.422;2023-01-28T08:57:54;102924.19;;;1.70;100.00
64844;BME280;51310;52.198;5.422;2023-01-28T09:00:21;102922.81;;;1.88;100.00
64844;BME280;51310;52.198;5.422;2023-01-28T09:02:51;102932.13;;;1.93;100.00
64844;BME280;51310;52.198;5.422;2023-01-28T09:05:18;102931.00;;;1.96;100.00
64844;BME280;51310;52.198;5.422;2023-01-28T09:07:44;102915.63;;;1.85;100.00
64844;BME280;51310;52.198;5.422;2023-01-28T09:10:11;102924.84;;;2.00;100.00
64844;BME280;51310;52.198;5.422;2023-01-28T09:12:37;102937.66;;;1.90;100.00
64844;BME280;51310;52.198;5.422;2023-01-28T09:15:04;102930.06;;;2.11;100.00
64844;BME280;51310;52.198;5.422;2023-01-28T09:17:30;102940.56;;;2.18;100.00
64844;BME280;51310;52.198;5.422;2023-01-28T09:19:56;102935.25;;;2.22;100.00
64844;BME280;51310;52.198;5.422;2023-01-28T09:22:22;102929.22;;;2.16;99.15
64844;BME280;51310;52.198;5.422;2023-01-28T09:24:47;102952.72;;;2.15;98.06
64844;BME280;51310;52.198;5.422;2023-01-28T09:27:13;102942.31;;;2.29;97.90
64844;BME280;51310;52.198;5.422;2023-01-28T09:29:39;102942.53;;;2.31;96.97
64844;BME280;51310;52.198;5.422;2023-01-28T09:32:05;102933.56;;;2.33;97.49
64844;BME280;51310;52.198;5.422;2023-01-28T09:34:33;102951.03;;;2.25;97.65
64844;BME280;51310;52.198;5.422;2023-01-28T09:37:00;102962.25;;;2.37;96.47
64844;BME280;51310;52.198;5.422;2023-01-28T09:39:26;102957.78;;;2.31;95.96
64844;BME280;51310;52.198;5.422;2023-01-28T09:42:38;102956.66;;;1.98;96.96
64844;BME280;51310;52.198;5.422;2023-01-28T09:45:20;102957.53;;;1.93;97.70
64844;BME280;51310;52.198;5.422;2023-01-28T09:47:54;102950.91;;;1.68;98.44
64844;BME280;51310;52.198;5.422;2023-01-28T09:50:35;102947.34;;;1.62;99.20
64844;BME280;51310;52.198;5.422;2023-01-28T09:53:24;102948.91;;;1.56;100.00
64844;BME280;51310;52.198;5.422;2023-01-28T09:56:04;102950.50;;;1.40;100.00
64844;BME280;51310;52.198;5.422;2023-01-28T09:58:31;102974.50;;;1.42;100.00
64844;BME280;51310;52.198;5.422;2023-01-28T10:03:56;102969.84;;;1.39;100.00
64844;BME280;51310;52.198;5.422;2023-01-28T10:09:42;102966.47;;;1.44;100.00
64844;BME280;51310;52.198;5.422;2023-01-28T10:12:36;102973.38;;;1.15;100.00
64844;BME280;51310;52.198;5.422;2023-01-28T10:17:59;102967.31;;;1.24;100.00
64844;BME280;51310;52.198;5.422;2023-01-28T10:20:36;102959.81;;;1.30;100.00
64844;BME280;51310;52.198;5.422;2023-01-28T10:23:26;102955.38;;;1.29;100.00
64844;BME280;51310;52.198;5.422;2023-01-28T10:25:58;102958.34;;;1.26;100.00
64844;BME280;51310;52.198;5.422;2023-01-28T10:28:29;102945.41;;;1.40;100.00
64844;BME280;51310;52.198;5.422;2023-01-28T10:30:55;102946.59;;;1.42;100.00
64844;BME280;51310;52.198;5.422;2023-01-28T10:35:54;102947.47;;;1.52;100.00
64844;BME280;51310;52.198;5.422;2023-01-28T10:38:25;102947.88;;;1.50;99.77
64844;BME280;51310;52.198;5.422;2023-01-28T10:40:54;102957.88;;;1.54;99.54
64844;BME280;51310;52.198;5.422;2023-01-28T10:43:28;102940.44;;;1.61;99.72
64844;BME280;51310;52.198;5.422;2023-01-28T10:46:27;102941.53;;;1.88;98.74
64844;BME280;51310;52.198;5.422;2023-01-28T10:51:40;102929.25;;;2.01;96.21
64844;BME280;51310;52.198;5.422;2023-01-28T10:54:27;102929.84;;;1.79;97.19
64844;BME280;51310;52.198;5.422;2023-01-28T10:57:03;102920.38;;;1.78;97.91
64844;BME280;51310;52.198;5.422;2023-01-28T10:59:33;102905.41;;;1.79;98.90
64844;BME280;51310;52.198;5.422;2023-01-28T11:02:17;102905.31;;;1.74;98.83
64844;BME280;51310;52.198;5.422;2023-01-28T11:04:44;102893.28;;;1.73;98.76
64844;BME280;51310;52.198;5.422;2023-01-28T11:07:19;102885.03;;;1.74;98.30
64844;BME280;51310;52.198;5.422;2023-01-28T11:09:52;102883.13;;;1.73;97.56
64844;BME280;51310;52.198;5.422;2023-01-28T11:12:23;102875.78;;;1.74;97.82
64844;BME280;51310;52.198;5.422;2023-01-28T11:14:58;102877.50;;;1.79;98.20
64844;BME280;51310;52.198;5.422;2023-01-28T11:17:30;102860.66;;;1.80;97.77
64844;BME280;51310;52.198;5.422;2023-01-28T11:20:28;102850.69;;;1.97;97.40
64844;BME280;51310;52.198;5.422;2023-01-28T11:22:56;102854.09;;;1.92;96.17
64844;BME280;51310;52.198;5.422;2023-01-28T11:25:33;102858.84;;;1.84;95.43
64844;BME280;51310;52.198;5.422;2023-01-28T11:28:04;102845.94;;;2.04;95.36
64844;BME280;51310;52.198;5.422;2023-01-28T11:30:36;102844.66;;;2.12;93.49
64844;BME280;51310;52.198;5.422;2023-01-28T11:33:20;102829.25;;;2.00;94.58
64844;BME280;51310;52.198;5.422;2023-01-28T11:36:04;102819.34;;;2.02;94.17
64844;BME280;51310;52.198;5.422;2023-01-28T11:38:30;102819.06;;;1.95;93.98
64844;BME280;51310;52.198;5.422;2023-01-28T11:40:57;102815.09;;;2.12;93.38
64844;BME280;51310;52.198;5.422;2023-01-28T11:43:28;102818.25;;;2.05;93.17
64844;BME280;51310;52.198;5.422;2023-01-28T11:52:37;102840.81;;;2.46;91.46
64844;BME280;51310;52.198;5.422;2023-01-28T11:59:16;102866.78;;;2.55;89.87
64844;BME280;51310;52.198;5.422;2023-01-28T12:01:46;102863.41;;;2.65;91.12
64844;BME280;51310;52.198;5.422;2023-01-28T12:04:24;102847.41;;;2.55;91.73
64844;BME280;51310;52.198;5.422;2023-01-28T12:07:39;102859.56;;;2.46;92.44
64844;BME280;51310;52.198;5.422;2023-01-28T12:13:54;102856.94;;;2.62;92.66
64844;BME280;51310;52.198;5.422;2023-01-28T12:17:08;102859.13;;;2.49;93.10
64844;BME280;51310;52.198;5.422;2023-01-28T12:22:57;102858.94;;;2.53;93.51
64844;BME280;51310;52.198;5.422;2023-01-28T12:29:17;102860.19;;;2.87;91.51
64844;BME280;51310;52.198;5.422;2023-01-28T12:32:12;102857.13;;;2.84;91.33
64844;BME280;51310;52.198;5.422;2023-01-28T12:34:52;102847.28;;;2.92;91.48
64844;BME280;51310;52.198;5.422;2023-01-28T12:42:50;102841.19;;;2.85;92.47
64844;BME280;51310;52.198;5.422;2023-01-28T12:45:43;102836.00;;;3.01;92.39
64844;BME280;51310;52.198;5.422;2023-01-28T12:48:27;102830.09;;;3.17;91.84
64844;BME280;51310;52.198;5.422;2023-01-28T12:51:04;102813.25;;;3.23;91.12
64844;BME280;51310;52.198;5.422;2023-01-28T12:54:00;102811.09;;;3.15;92.38
64844;BME280;51310;52.198;5.422;2023-01-28T12:56:35;102815.00;;;3.07;92.40
64844;BME280;51310;52.198;5.422;2023-01-28T12:59:21;102805.56;;;3.12;91.83
64844;BME280;51310;52.198;5.422;2023-01-28T13:04:55;102770.34;;;3.47;91.65
64844;BME280;51310;52.198;5.422;2023-01-28T13:07:44;102768.13;;;3.66;91.79
64844;BME280;51310;52.198;5.422;2023-01-28T13:12:59;102771.13;;;3.63;91.00
64844;BME280;51310;52.198;5.422;2023-01-28T13:15:25;102778.78;;;3.75;88.38
64844;BME280;51310;52.198;5.422;2023-01-28T13:18:00;102774.72;;;3.37;90.10
64844;BME280;51310;52.198;5.422;2023-01-28T13:23:04;102772.34;;;3.27;90.74
64844;BME280;51310;52.198;5.422;2023-01-28T13:25:33;102769.41;;;3.03;92.78
64844;BME280;51310;52.198;5.422;2023-01-28T13:28:05;102769.69;;;3.11;93.96
64844;BME280;51310;52.198;5.422;2023-01-28T13:30:45;102762.56;;;3.19;94.03
64844;BME280;51310;52.198;5.422;2023-01-28T13:33:37;102764.94;;;3.29;93.87
64844;BME280;51310;52.198;5.422;2023-01-28T13:38:44;102761.28;;;3.33;91.79
64844;BME280;51310;52.198;5.422;2023-01-28T13:41:10;102767.28;;;3.39;92.67
64844;BME280;51310;52.198;5.422;2023-01-28T13:43:41;102774.88;;;3.22;91.62
64844;BME280;51310;52.198;5.422;2023-01-28T13:46:28;102767.06;;;3.37;91.91
64844;BME280;51310;52.198;5.422;2023-01-28T13:48:57;102769.03;;;3.61;90.31
64844;BME280;51310;52.198;5.422;2023-01-28T13:51:30;102766.03;;;3.63;88.91
64844;BME280;51310;52.198;5.422;2023-01-28T13:54:06;102764.53;;;3.43;90.08
64844;BME280;51310;52.198;5.422;2023-01-28T14:17:41;102805.97;;;3.47;89.95
64844;BME280;51310;52.198;5.422;2023-01-28T14:20:25;102796.25;;;3.39;90.61
64844;BME280;51310;52.198;5.422;2023-01-28T14:23:00;102786.28;;;3.41;91.54
64844;BME280;51310;52.198;5.422;2023-01-28T14:28:34;102782.09;;;3.36;91.57
64844;BME280;51310;52.198;5.422;2023-01-28T14:31:19;102781.97;;;3.62;91.45
64844;BME280;51310;52.198;5.422;2023-01-28T14:33:46;102778.94;;;3.48;90.66
64844;BME280;51310;52.198;5.422;2023-01-28T14:36:12;102779.69;;;3.64;91.20
64844;BME280;51310;52.198;5.422;2023-01-28T14:38:42;102779.94;;;3.71;90.27
64844;BME280;51310;52.198;5.422;2023-01-28T14:41:21;102780.78;;;3.49;91.13
64844;BME280;51310;52.198;5.422;2023-01-28T14:43:48;102781.69;;;3.49;91.88
64844;BME280;51310;52.198;5.422;2023-01-28T14:46:42;102785.03;;;3.71;90.95
64844;BME280;51310;52.198;5.422;2023-01-28T14:49:39;102780.63;;;3.70;90.39